sensor_id;sensor_type;location;lat;lon;timestamp;P1;durP1;ratioP1;P2;durP2;ratioP2
66607;SDS011;53462;39.616;8.824;2022-08-20T00:01:44;9.98;;;2.55;;
66607;SDS011;53462;39.616;8.824;2022-08-20T00:04:12;9.60;;;2.60;;
66607;SDS011;53462;39.616;8.824;2022-08-20T00:06:38;7.88;;;2.38;;
66607;SDS011;53462;39.616;8.824;2022-08-20T00:09:05;10.75;;;3.15;;
66607;SDS011;53462;39.616;8.824;2022-08-20T00:11:32;7.65;;;2.60;;
66607;SDS011;53462;39.616;8.824;2022-08-20T00:13:59;7.82;;;2.70;;
66607;SDS011;53462;39.616;8.824;2022-08-20T00:16:28;12.13;;;2.80;;
66607;SDS011;53462;39.616;8.824;2022-08-20T00:19:00;5.85;;;2.50;;
66607;SDS011;53462;39.616;8.824;2022-08-20T00:21:28;8.05;;;2.40;;
66607;SDS011;53462;39.616;8.824;2022-08-20T00:23:55;7.22;;;2.30;;
66607;SDS011;53462;39.616;8.824;2022-08-20T00:26:21;7.47;;;2.47;;
66607;SDS011;53462;39.616;8.824;2022-08-20T00:28:48;6.78;;;2.25;;
66607;SDS011;53462;39.616;8.824;2022-08-20T00:31:15;6.30;;;2.28;;
66607;SDS011;53462;39.616;8.824;2022-08-20T00:33:43;7.47;;;2.45;;
66607;SDS011;53462;39.616;8.824;2022-08-20T00:36:11;6.18;;;2.08;;
66607;SDS011;53462;39.616;8.824;2022-08-20T00:38:37;6.70;;;2.40;;
66607;SDS011;53462;39.616;8.824;2022-08-20T00:41:07;7.45;;;2.45;;
66607;SDS011;53462;39.616;8.824;2022-08-20T00:46:18;7.63;;;2.75;;
66607;SDS011;53462;39.616;8.824;2022-08-20T00:48:47;8.65;;;2.67;;
66607;SDS011;53462;39.616;8.824;2022-08-20T00:51:49;7.88;;;2.40;;
66607;SDS011;53462;39.616;8.824;2022-08-20T00:56:41;11.15;;;2.35;;
66607;SDS011;53462;39.616;8.824;2022-08-20T00:59:10;8.25;;;2.42;;
66607;SDS011;53462;39.616;8.824;2022-08-20T01:01:39;5.30;;;1.95;;
66607;SDS011;53462;39.616;8.824;2022-08-20T01:04:07;8.90;;;2.10;;
66607;SDS011;53462;39.616;8.824;2022-08-20T01:06:36;10.02;;;2.65;;
66607;SDS011;53462;39.616;8.824;2022-08-20T01:09:03;7.35;;;2.80;;
66607;SDS011;53462;39.616;8.824;2022-08-20T01:11:29;9.27;;;2.80;;
66607;SDS011;53462;39.616;8.824;2022-08-20T01:14:00;9.50;;;2.40;;
66607;SDS011;53462;39.616;8.824;2022-08-20T01:16:51;7.32;;;2.10;;
66607;SDS011;53462;39.616;8.824;2022-08-20T01:19:21;7.25;;;2.05;;
66607;SDS011;53462;39.616;8.824;2022-08-20T01:21:58;8.27;;;2.10;;
66607;SDS011;53462;39.616;8.824;2022-08-20T01:24:47;8.73;;;2.10;;
66607;SDS011;53462;39.616;8.824;2022-08-20T01:27:19;12.35;;;2.38;;
66607;SDS011;53462;39.616;8.824;2022-08-20T01:29:46;10.98;;;2.40;;
66607;SDS011;53462;39.616;8.824;2022-08-20T01:32:14;10.23;;;2.40;;
66607;SDS011;53462;39.616;8.824;2022-08-20T01:34:40;6.28;;;2.22;;
66607;SDS011;53462;39.616;8.824;2022-08-20T01:37:06;9.90;;;2.47;;
66607;SDS011;53462;39.616;8.824;2022-08-20T01:39:33;7.32;;;1.95;;
66607;SDS011;53462;39.616;8.824;2022-08-20T01:42:08;8.32;;;2.40;;
66607;SDS011;53462;39.616;8.824;2022-08-20T01:44:40;9.90;;;2.13;;
66607;SDS011;53462;39.616;8.824;2022-08-20T01:47:27;12.73;;;2.35;;
66607;SDS011;53462;39.616;8.824;2022-08-20T01:49:57;9.18;;;2.17;;
66607;SDS011;53462;39.616;8.824;2022-08-20T01:55:13;10.57;;;2.13;;
66607;SDS011;53462;39.616;8.824;2022-08-20T01:57:39;9.77;;;2.33;;
66607;SDS011;53462;39.616;8.824;2022-08-20T02:00:07;12.60;;;2.38;;
66607;SDS011;53462;39.616;8.824;2022-08-20T02:02:37;6.90;;;2.20;;
66607;SDS011;53462;39.616;8.824;2022-08-20T02:05:03;7.10;;;2.50;;
66607;SDS011;53462;39.616;8.824;2022-08-20T02:07:30;8.50;;;2.30;;
66607;SDS011;53462;39.616;8.824;2022-08-20T02:09:56;10.30;;;2.33;;
66607;SDS011;53462;39.616;8.824;2022-08-20T02:12:24;9.35;;;2.78;;
66607;SDS011;53462;39.616;8.824;2022-08-20T02:14:51;10.32;;;2.17;;
66607;SDS011;53462;39.616;8.824;2022-08-20T02:17:19;6.90;;;2.10;;
66607;SDS011;53462;39.616;8.824;2022-08-20T02:19:54;9.60;;;2.20;;
66607;SDS011;53462;39.616;8.824;2022-08-20T02:25:21;7.30;;;2.17;;
66607;SDS011;53462;39.616;8.824;2022-08-20T02:27:50;8.88;;;2.50;;
66607;SDS011;53462;39.616;8.824;2022-08-20T02:30:19;10.65;;;2.28;;
66607;SDS011;53462;39.616;8.824;2022-08-20T02:32:51;9.32;;;2.78;;
66607;SDS011;53462;39.616;8.824;2022-08-20T02:35:17;8.43;;;2.20;;
66607;SDS011;53462;39.616;8.824;2022-08-20T02:37:44;11.90;;;2.47;;
66607;SDS011;53462;39.616;8.824;2022-08-20T02:40:12;7.35;;;2.47;;
66607;SDS011;53462;39.616;8.824;2022-08-20T02:42:41;13.90;;;2.50;;
66607;SDS011;53462;39.616;8.824;2022-08-20T02:45:12;9.27;;;2.30;;
66607;SDS011;53462;39.616;8.824;2022-08-20T02:47:39;7.55;;;2.17;;
66607;SDS011;53462;39.616;8.824;2022-08-20T02:50:10;6.28;;;2.42;;
66607;SDS011;53462;39.616;8.824;2022-08-20T02:52:38;9.90;;;2.80;;
66607;SDS011;53462;39.616;8.824;2022-08-20T02:55:05;6.55;;;2.10;;
66607;SDS011;53462;39.616;8.824;2022-08-20T02:57:32;9.57;;;2.55;;
66607;SDS011;53462;39.616;8.824;2022-08-20T02:59:58;5.35;;;2.22;;
66607;SDS011;53462;39.616;8.824;2022-08-20T03:02:26;8.40;;;2.42;;
66607;SDS011;53462;39.616;8.824;2022-08-20T03:04:52;10.13;;;3.00;;
66607;SDS011;53462;39.616;8.824;2022-08-20T03:07:18;7.53;;;2.60;;
66607;SDS011;53462;39.616;8.824;2022-08-20T03:09:44;6.43;;;2.20;;
66607;SDS011;53462;39.616;8.824;2022-08-20T03:12:10;5.40;;;2.10;;
66607;SDS011;53462;39.616;8.824;2022-08-20T03:14:36;8.52;;;3.05;;
66607;SDS011;53462;39.616;8.824;2022-08-20T03:17:03;4.85;;;2.38;;
66607;SDS011;53462;39.616;8.824;2022-08-20T03:19:29;8.73;;;2.50;;
66607;SDS011;53462;39.616;8.824;2022-08-20T03:21:55;7.80;;;2.33;;
66607;SDS011;53462;39.616;8.824;2022-08-20T03:24:21;12.65;;;3.00;;
66607;SDS011;53462;39.616;8.824;2022-08-20T03:26:47;9.15;;;2.38;;
66607;SDS011;53462;39.616;8.824;2022-08-20T03:29:13;9.07;;;2.50;;
66607;SDS011;53462;39.616;8.824;2022-08-20T03:31:39;8.05;;;2.72;;
66607;SDS011;53462;39.616;8.824;2022-08-20T03:34:05;6.43;;;2.33;;
66607;SDS011;53462;39.616;8.824;2022-08-20T03:36:31;7.00;;;2.30;;
66607;SDS011;53462;39.616;8.824;2022-08-20T03:38:58;7.65;;;2.20;;
66607;SDS011;53462;39.616;8.824;2022-08-20T03:41:25;8.30;;;2.60;;
66607;SDS011;53462;39.616;8.824;2022-08-20T03:43:53;9.02;;;2.47;;
66607;SDS011;53462;39.616;8.824;2022-08-20T03:46:19;11.07;;;2.63;;
66607;SDS011;53462;39.616;8.824;2022-08-20T03:48:45;4.38;;;2.20;;
66607;SDS011;53462;39.616;8.824;2022-08-20T03:51:11;7.22;;;2.45;;
66607;SDS011;53462;39.616;8.824;2022-08-20T03:53:37;7.10;;;2.33;;
66607;SDS011;53462;39.616;8.824;2022-08-20T03:56:04;8.18;;;2.58;;
66607;SDS011;53462;39.616;8.824;2022-08-20T03:58:31;5.70;;;2.47;;
66607;SDS011;53462;39.616;8.824;2022-08-20T04:00:58;8.25;;;2.55;;
66607;SDS011;53462;39.616;8.824;2022-08-20T04:03:24;10.23;;;2.72;;
66607;SDS011;53462;39.616;8.824;2022-08-20T04:05:51;10.60;;;2.78;;
66607;SDS011;53462;39.616;8.824;2022-08-20T04:08:19;8.30;;;3.08;;
66607;SDS011;53462;39.616;8.824;2022-08-20T04:10:49;9.65;;;2.80;;
66607;SDS011;53462;39.616;8.824;2022-08-20T04:13:16;8.73;;;2.78;;
66607;SDS011;53462;39.616;8.824;2022-08-20T04:15:44;9.88;;;2.83;;
66607;SDS011;53462;39.616;8.824;2022-08-20T04:18:11;7.82;;;2.60;;
66607;SDS011;53462;39.616;8.824;2022-08-20T04:20:39;11.30;;;2.80;;
66607;SDS011;53462;39.616;8.824;2022-08-20T04:23:07;8.23;;;2.80;;
66607;SDS011;53462;39.616;8.824;2022-08-20T04:25:35;23.67;;;13.20;;
66607;SDS011;53462;39.616;8.824;2022-08-20T04:28:05;12.70;;;5.95;;
66607;SDS011;53462;39.616;8.824;2022-08-20T04:30:33;7.45;;;3.40;;
66607;SDS011;53462;39.616;8.824;2022-08-20T04:32:59;8.40;;;3.20;;
66607;SDS011;53462;39.616;8.824;2022-08-20T04:35:26;9.73;;;3.58;;
66607;SDS011;53462;39.616;8.824;2022-08-20T04:37:57;6.35;;;2.90;;
66607;SDS011;53462;39.616;8.824;2022-08-20T04:40:24;8.25;;;3.70;;
66607;SDS011;53462;39.616;8.824;2022-08-20T04:43:09;11.48;;;4.35;;
66607;SDS011;53462;39.616;8.824;2022-08-20T04:45:35;6.25;;;3.00;;
66607;SDS011;53462;39.616;8.824;2022-08-20T04:48:01;10.68;;;3.00;;
66607;SDS011;53462;39.616;8.824;2022-08-20T04:50:30;8.73;;;3.50;;
66607;SDS011;53462;39.616;8.824;2022-08-20T04:53:08;6.38;;;2.65;;
66607;SDS011;53462;39.616;8.824;2022-08-20T04:55:36;8.73;;;2.97;;
66607;SDS011;53462;39.616;8.824;2022-08-20T04:58:10;8.27;;;2.85;;
66607;SDS011;53462;39.616;8.824;2022-08-20T05:00:38;5.68;;;2.80;;
66607;SDS011;53462;39.616;8.824;2022-08-20T05:03:05;8.75;;;3.20;;
66607;SDS011;53462;39.616;8.824;2022-08-20T05:05:34;8.20;;;2.80;;
66607;SDS011;53462;39.616;8.824;2022-08-20T05:08:00;11.82;;;2.70;;
66607;SDS011;53462;39.616;8.824;2022-08-20T05:10:27;13.80;;;3.08;;
66607;SDS011;53462;39.616;8.824;2022-08-20T05:12:53;11.70;;;3.00;;
66607;SDS011;53462;39.616;8.824;2022-08-20T05:15:20;6.53;;;2.80;;
66607;SDS011;53462;39.616;8.824;2022-08-20T05:17:45;15.52;;;3.50;;
66607;SDS011;53462;39.616;8.824;2022-08-20T05:20:13;10.10;;;2.85;;
66607;SDS011;53462;39.616;8.824;2022-08-20T05:22:42;14.20;;;4.18;;
66607;SDS011;53462;39.616;8.824;2022-08-20T05:25:08;9.50;;;2.85;;
66607;SDS011;53462;39.616;8.824;2022-08-20T05:27:35;10.05;;;3.00;;
66607;SDS011;53462;39.616;8.824;2022-08-20T05:30:02;10.98;;;3.38;;
66607;SDS011;53462;39.616;8.824;2022-08-20T05:32:34;10.27;;;3.10;;
66607;SDS011;53462;39.616;8.824;2022-08-20T05:35:01;8.75;;;2.90;;
66607;SDS011;53462;39.616;8.824;2022-08-20T05:37:28;11.73;;;2.92;;
66607;SDS011;53462;39.616;8.824;2022-08-20T05:39:55;12.40;;;3.05;;
66607;SDS011;53462;39.616;8.824;2022-08-20T05:42:21;14.23;;;3.40;;
66607;SDS011;53462;39.616;8.824;2022-08-20T05:44:47;7.53;;;2.60;;
66607;SDS011;53462;39.616;8.824;2022-08-20T05:47:14;10.35;;;3.53;;
66607;SDS011;53462;39.616;8.824;2022-08-20T05:49:40;11.10;;;3.35;;
66607;SDS011;53462;39.616;8.824;2022-08-20T05:52:06;8.82;;;3.35;;
66607;SDS011;53462;39.616;8.824;2022-08-20T05:54:32;9.73;;;3.50;;
66607;SDS011;53462;39.616;8.824;2022-08-20T05:56:58;13.13;;;3.33;;
66607;SDS011;53462;39.616;8.824;2022-08-20T05:59:23;8.52;;;3.22;;
66607;SDS011;53462;39.616;8.824;2022-08-20T06:01:50;13.30;;;3.70;;
66607;SDS011;53462;39.616;8.824;2022-08-20T06:04:17;9.65;;;3.00;;
66607;SDS011;53462;39.616;8.824;2022-08-20T06:06:51;14.95;;;2.80;;
66607;SDS011;53462;39.616;8.824;2022-08-20T06:09:20;12.20;;;2.80;;
66607;SDS011;53462;39.616;8.824;2022-08-20T06:11:47;8.65;;;2.63;;
66607;SDS011;53462;39.616;8.824;2022-08-20T06:14:13;12.65;;;3.78;;
66607;SDS011;53462;39.616;8.824;2022-08-20T06:16:41;15.95;;;3.03;;
66607;SDS011;53462;39.616;8.824;2022-08-20T06:19:07;10.98;;;2.97;;
66607;SDS011;53462;39.616;8.824;2022-08-20T06:21:33;17.73;;;3.47;;
66607;SDS011;53462;39.616;8.824;2022-08-20T06:23:59;15.80;;;3.40;;
66607;SDS011;53462;39.616;8.824;2022-08-20T06:26:25;10.93;;;3.50;;
66607;SDS011;53462;39.616;8.824;2022-08-20T06:28:52;10.70;;;2.92;;
66607;SDS011;53462;39.616;8.824;2022-08-20T06:31:18;13.57;;;3.20;;
66607;SDS011;53462;39.616;8.824;2022-08-20T06:33:46;14.75;;;3.58;;
66607;SDS011;53462;39.616;8.824;2022-08-20T06:36:12;63.47;;;4.63;;
66607;SDS011;53462;39.616;8.824;2022-08-20T06:38:38;24.38;;;3.97;;
66607;SDS011;53462;39.616;8.824;2022-08-20T06:41:04;9.77;;;3.10;;
66607;SDS011;53462;39.616;8.824;2022-08-20T06:43:30;11.57;;;2.80;;
66607;SDS011;53462;39.616;8.824;2022-08-20T06:45:56;13.23;;;2.85;;
66607;SDS011;53462;39.616;8.824;2022-08-20T06:48:22;9.30;;;2.75;;
66607;SDS011;53462;39.616;8.824;2022-08-20T06:50:48;15.60;;;3.17;;
66607;SDS011;53462;39.616;8.824;2022-08-20T06:53:15;11.10;;;3.15;;
66607;SDS011;53462;39.616;8.824;2022-08-20T06:55:45;7.57;;;3.00;;
66607;SDS011;53462;39.616;8.824;2022-08-20T06:58:14;17.88;;;3.60;;
66607;SDS011;53462;39.616;8.824;2022-08-20T07:00:41;13.70;;;3.50;;
66607;SDS011;53462;39.616;8.824;2022-08-20T07:03:08;8.43;;;2.53;;
66607;SDS011;53462;39.616;8.824;2022-08-20T07:05:36;10.68;;;2.97;;
66607;SDS011;53462;39.616;8.824;2022-08-20T07:08:10;12.67;;;3.57;;
66607;SDS011;53462;39.616;8.824;2022-08-20T07:10:38;8.02;;;2.47;;
66607;SDS011;53462;39.616;8.824;2022-08-20T07:13:07;15.48;;;3.10;;
66607;SDS011;53462;39.616;8.824;2022-08-20T07:15:35;9.65;;;2.78;;
66607;SDS011;53462;39.616;8.824;2022-08-20T07:18:02;14.27;;;2.88;;
66607;SDS011;53462;39.616;8.824;2022-08-20T07:20:30;8.18;;;2.58;;
66607;SDS011;53462;39.616;8.824;2022-08-20T07:22:58;8.88;;;2.53;;
66607;SDS011;53462;39.616;8.824;2022-08-20T07:25:24;12.52;;;2.60;;
66607;SDS011;53462;39.616;8.824;2022-08-20T07:27:51;10.57;;;2.50;;
66607;SDS011;53462;39.616;8.824;2022-08-20T07:30:18;9.80;;;2.60;;
66607;SDS011;53462;39.616;8.824;2022-08-20T07:33:06;8.48;;;2.50;;
66607;SDS011;53462;39.616;8.824;2022-08-20T07:35:32;9.70;;;2.65;;
66607;SDS011;53462;39.616;8.824;2022-08-20T07:37:59;9.50;;;2.80;;
66607;SDS011;53462;39.616;8.824;2022-08-20T07:40:32;12.75;;;2.63;;
66607;SDS011;53462;39.616;8.824;2022-08-20T07:42:59;8.55;;;2.38;;
66607;SDS011;53462;39.616;8.824;2022-08-20T07:45:27;8.38;;;2.33;;
66607;SDS011;53462;39.616;8.824;2022-08-20T07:47:54;9.63;;;2.33;;
66607;SDS011;53462;39.616;8.824;2022-08-20T07:50:30;10.00;;;3.67;;
66607;SDS011;53462;39.616;8.824;2022-08-20T07:52:56;8.13;;;2.50;;
66607;SDS011;53462;39.616;8.824;2022-08-20T07:55:25;4.85;;;2.28;;
66607;SDS011;53462;39.616;8.824;2022-08-20T07:57:51;6.68;;;2.20;;
66607;SDS011;53462;39.616;8.824;2022-08-20T08:00:19;4.35;;;2.13;;
66607;SDS011;53462;39.616;8.824;2022-08-20T08:02:46;9.25;;;2.30;;
66607;SDS011;53462;39.616;8.824;2022-08-20T08:05:12;8.90;;;2.30;;
66607;SDS011;53462;39.616;8.824;2022-08-20T08:07:39;8.18;;;2.30;;
66607;SDS011;53462;39.616;8.824;2022-08-20T08:10:07;6.05;;;2.05;;
66607;SDS011;53462;39.616;8.824;2022-08-20T08:12:37;11.13;;;2.45;;
66607;SDS011;53462;39.616;8.824;2022-08-20T08:15:06;10.20;;;2.60;;
66607;SDS011;53462;39.616;8.824;2022-08-20T08:17:36;6.35;;;2.55;;
66607;SDS011;53462;39.616;8.824;2022-08-20T08:20:04;12.68;;;2.28;;
66607;SDS011;53462;39.616;8.824;2022-08-20T08:22:31;8.50;;;2.10;;
66607;SDS011;53462;39.616;8.824;2022-08-20T08:24:57;10.52;;;2.17;;
66607;SDS011;53462;39.616;8.824;2022-08-20T08:27:29;9.80;;;2.63;;
66607;SDS011;53462;39.616;8.824;2022-08-20T08:29:59;7.68;;;2.40;;
66607;SDS011;53462;39.616;8.824;2022-08-20T08:32:26;9.73;;;1.95;;
66607;SDS011;53462;39.616;8.824;2022-08-20T08:34:52;9.43;;;2.30;;
66607;SDS011;53462;39.616;8.824;2022-08-20T08:37:18;5.50;;;1.75;;
66607;SDS011;53462;39.616;8.824;2022-08-20T08:39:44;7.57;;;2.05;;
66607;SDS011;53462;39.616;8.824;2022-08-20T08:42:25;6.10;;;1.73;;
66607;SDS011;53462;39.616;8.824;2022-08-20T08:45:14;6.00;;;2.00;;
66607;SDS011;53462;39.616;8.824;2022-08-20T08:47:42;9.30;;;2.15;;
66607;SDS011;53462;39.616;8.824;2022-08-20T08:50:15;7.22;;;1.75;;
66607;SDS011;53462;39.616;8.824;2022-08-20T08:52:51;6.53;;;1.77;;
66607;SDS011;53462;39.616;8.824;2022-08-20T08:55:23;7.65;;;1.60;;
66607;SDS011;53462;39.616;8.824;2022-08-20T08:57:50;6.93;;;1.73;;
66607;SDS011;53462;39.616;8.824;2022-08-20T09:00:20;7.53;;;1.83;;
66607;SDS011;53462;39.616;8.824;2022-08-20T09:03:01;8.32;;;1.65;;
66607;SDS011;53462;39.616;8.824;2022-08-20T09:05:39;7.78;;;1.90;;
66607;SDS011;53462;39.616;8.824;2022-08-20T09:08:18;8.13;;;1.85;;
66607;SDS011;53462;39.616;8.824;2022-08-20T09:10:51;7.03;;;1.80;;
66607;SDS011;53462;39.616;8.824;2022-08-20T09:13:17;7.15;;;1.50;;
66607;SDS011;53462;39.616;8.824;2022-08-20T09:15:43;6.25;;;1.60;;
66607;SDS011;53462;39.616;8.824;2022-08-20T09:18:10;8.95;;;1.90;;
66607;SDS011;53462;39.616;8.824;2022-08-20T09:20:36;9.27;;;1.55;;
66607;SDS011;53462;39.616;8.824;2022-08-20T09:23:04;9.93;;;1.73;;
66607;SDS011;53462;39.616;8.824;2022-08-20T09:25:31;5.45;;;1.52;;
66607;SDS011;53462;39.616;8.824;2022-08-20T09:27:57;4.55;;;1.70;;
66607;SDS011;53462;39.616;8.824;2022-08-20T09:30:23;7.00;;;1.73;;
66607;SDS011;53462;39.616;8.824;2022-08-20T09:32:49;6.88;;;1.30;;
66607;SDS011;53462;39.616;8.824;2022-08-20T09:35:15;4.43;;;1.50;;
66607;SDS011;53462;39.616;8.824;2022-08-20T09:37:42;7.82;;;1.38;;
66607;SDS011;53462;39.616;8.824;2022-08-20T09:40:08;4.60;;;1.70;;
66607;SDS011;53462;39.616;8.824;2022-08-20T09:42:35;7.03;;;1.83;;
66607;SDS011;53462;39.616;8.824;2022-08-20T09:45:02;6.63;;;1.90;;
66607;SDS011;53462;39.616;8.824;2022-08-20T09:47:29;5.18;;;1.50;;
66607;SDS011;53462;39.616;8.824;2022-08-20T09:49:55;4.95;;;1.60;;
66607;SDS011;53462;39.616;8.824;2022-08-20T09:54:47;5.53;;;1.48;;
66607;SDS011;53462;39.616;8.824;2022-08-20T09:57:13;6.80;;;1.73;;
66607;SDS011;53462;39.616;8.824;2022-08-20T09:59:40;8.80;;;1.58;;
66607;SDS011;53462;39.616;8.824;2022-08-20T10:02:07;7.63;;;1.77;;
66607;SDS011;53462;39.616;8.824;2022-08-20T10:04:33;7.22;;;1.75;;
66607;SDS011;53462;39.616;8.824;2022-08-20T10:06:59;4.65;;;1.30;;
66607;SDS011;53462;39.616;8.824;2022-08-20T10:09:25;6.22;;;1.55;;
66607;SDS011;53462;39.616;8.824;2022-08-20T10:11:51;5.05;;;1.40;;
66607;SDS011;53462;39.616;8.824;2022-08-20T10:14:16;7.63;;;1.50;;
66607;SDS011;53462;39.616;8.824;2022-08-20T10:16:42;6.10;;;1.90;;
66607;SDS011;53462;39.616;8.824;2022-08-20T10:19:08;6.20;;;1.40;;
66607;SDS011;53462;39.616;8.824;2022-08-20T10:21:34;9.30;;;2.40;;
66607;SDS011;53462;39.616;8.824;2022-08-20T10:24:00;6.07;;;1.48;;
66607;SDS011;53462;39.616;8.824;2022-08-20T10:26:26;4.80;;;1.48;;
66607;SDS011;53462;39.616;8.824;2022-08-20T10:28:52;5.68;;;1.40;;
66607;SDS011;53462;39.616;8.824;2022-08-20T10:31:18;5.45;;;1.70;;
66607;SDS011;53462;39.616;8.824;2022-08-20T10:33:44;4.95;;;1.63;;
66607;SDS011;53462;39.616;8.824;2022-08-20T10:36:12;7.75;;;1.80;;
66607;SDS011;53462;39.616;8.824;2022-08-20T10:38:41;7.32;;;1.40;;
66607;SDS011;53462;39.616;8.824;2022-08-20T10:41:08;3.85;;;1.13;;
66607;SDS011;53462;39.616;8.824;2022-08-20T10:43:34;4.10;;;1.30;;
66607;SDS011;53462;39.616;8.824;2022-08-20T10:46:01;4.85;;;1.23;;
66607;SDS011;53462;39.616;8.824;2022-08-20T10:48:27;5.75;;;1.10;;
66607;SDS011;53462;39.616;8.824;2022-08-20T10:50:53;3.50;;;1.10;;
66607;SDS011;53462;39.616;8.824;2022-08-20T10:53:19;2.85;;;1.10;;
66607;SDS011;53462;39.616;8.824;2022-08-20T10:55:46;3.80;;;1.20;;
66607;SDS011;53462;39.616;8.824;2022-08-20T10:58:12;3.38;;;1.20;;
66607;SDS011;53462;39.616;8.824;2022-08-20T11:00:38;5.15;;;1.40;;
66607;SDS011;53462;39.616;8.824;2022-08-20T11:03:05;5.32;;;1.30;;
66607;SDS011;53462;39.616;8.824;2022-08-20T11:05:32;4.13;;;1.10;;
66607;SDS011;53462;39.616;8.824;2022-08-20T11:08:00;3.72;;;1.08;;
66607;SDS011;53462;39.616;8.824;2022-08-20T11:10:28;2.38;;;1.08;;
66607;SDS011;53462;39.616;8.824;2022-08-20T11:12:57;3.10;;;1.10;;
66607;SDS011;53462;39.616;8.824;2022-08-20T11:15:24;3.97;;;1.13;;
66607;SDS011;53462;39.616;8.824;2022-08-20T11:17:50;5.50;;;1.42;;
66607;SDS011;53462;39.616;8.824;2022-08-20T11:20:17;3.28;;;0.90;;
66607;SDS011;53462;39.616;8.824;2022-08-20T11:22:45;6.57;;;1.10;;
66607;SDS011;53462;39.616;8.824;2022-08-20T11:25:11;6.15;;;1.48;;
66607;SDS011;53462;39.616;8.824;2022-08-20T11:27:41;6.53;;;1.40;;
66607;SDS011;53462;39.616;8.824;2022-08-20T11:30:15;7.25;;;1.65;;
66607;SDS011;53462;39.616;8.824;2022-08-20T11:32:45;6.75;;;1.40;;
66607;SDS011;53462;39.616;8.824;2022-08-20T11:35:11;4.35;;;1.20;;
66607;SDS011;53462;39.616;8.824;2022-08-20T11:37:38;4.68;;;1.30;;
66607;SDS011;53462;39.616;8.824;2022-08-20T11:40:04;5.13;;;1.17;;
66607;SDS011;53462;39.616;8.824;2022-08-20T11:42:37;3.47;;;1.37;;
66607;SDS011;53462;39.616;8.824;2022-08-20T11:45:04;5.20;;;1.40;;
66607;SDS011;53462;39.616;8.824;2022-08-20T11:47:31;3.67;;;1.10;;
66607;SDS011;53462;39.616;8.824;2022-08-20T11:50:07;4.78;;;1.40;;
66607;SDS011;53462;39.616;8.824;2022-08-20T11:52:39;6.88;;;1.40;;
66607;SDS011;53462;39.616;8.824;2022-08-20T11:55:05;3.60;;;1.20;;
66607;SDS011;53462;39.616;8.824;2022-08-20T11:57:34;3.55;;;1.30;;
66607;SDS011;53462;39.616;8.824;2022-08-20T12:00:03;6.00;;;1.55;;
66607;SDS011;53462;39.616;8.824;2022-08-20T12:02:34;6.45;;;1.48;;
66607;SDS011;53462;39.616;8.824;2022-08-20T12:05:01;5.90;;;1.40;;
66607;SDS011;53462;39.616;8.824;2022-08-20T12:07:27;3.17;;;1.10;;
66607;SDS011;53462;39.616;8.824;2022-08-20T12:09:53;8.95;;;1.67;;
66607;SDS011;53462;39.616;8.824;2022-08-20T12:12:20;6.68;;;1.50;;
66607;SDS011;53462;39.616;8.824;2022-08-20T12:14:48;5.35;;;1.42;;
66607;SDS011;53462;39.616;8.824;2022-08-20T12:17:23;2.40;;;1.20;;
66607;SDS011;53462;39.616;8.824;2022-08-20T12:19:51;6.45;;;1.27;;
66607;SDS011;53462;39.616;8.824;2022-08-20T12:22:20;6.45;;;1.40;;
66607;SDS011;53462;39.616;8.824;2022-08-20T12:24:46;3.55;;;1.00;;
66607;SDS011;53462;39.616;8.824;2022-08-20T12:29:48;8.07;;;1.65;;
66607;SDS011;53462;39.616;8.824;2022-08-20T12:32:16;6.50;;;1.33;;
66607;SDS011;53462;39.616;8.824;2022-08-20T12:34:43;8.98;;;1.60;;
66607;SDS011;53462;39.616;8.824;2022-08-20T12:37:13;5.43;;;1.42;;
66607;SDS011;53462;39.616;8.824;2022-08-20T12:39:42;5.28;;;1.30;;
66607;SDS011;53462;39.616;8.824;2022-08-20T12:42:10;5.82;;;1.52;;
66607;SDS011;53462;39.616;8.824;2022-08-20T12:44:37;7.20;;;1.63;;
66607;SDS011;53462;39.616;8.824;2022-08-20T12:47:17;6.75;;;1.20;;
66607;SDS011;53462;39.616;8.824;2022-08-20T12:49:58;5.20;;;1.35;;
66607;SDS011;53462;39.616;8.824;2022-08-20T12:52:26;7.18;;;1.60;;
66607;SDS011;53462;39.616;8.824;2022-08-20T12:54:54;6.03;;;1.20;;
66607;SDS011;53462;39.616;8.824;2022-08-20T12:57:24;7.03;;;1.38;;
66607;SDS011;53462;39.616;8.824;2022-08-20T12:59:57;7.18;;;1.45;;
66607;SDS011;53462;39.616;8.824;2022-08-20T13:02:31;5.00;;;1.50;;
66607;SDS011;53462;39.616;8.824;2022-08-20T13:04:57;5.43;;;1.50;;
66607;SDS011;53462;39.616;8.824;2022-08-20T13:07:23;5.40;;;1.50;;
66607;SDS011;53462;39.616;8.824;2022-08-20T13:09:50;5.85;;;1.35;;
66607;SDS011;53462;39.616;8.824;2022-08-20T13:12:17;4.72;;;1.40;;
66607;SDS011;53462;39.616;8.824;2022-08-20T13:14:43;6.78;;;1.50;;
66607;SDS011;53462;39.616;8.824;2022-08-20T13:17:09;10.15;;;1.50;;
66607;SDS011;53462;39.616;8.824;2022-08-20T13:19:36;5.03;;;1.50;;
66607;SDS011;53462;39.616;8.824;2022-08-20T13:22:03;9.35;;;1.40;;
66607;SDS011;53462;39.616;8.824;2022-08-20T13:24:29;5.90;;;1.45;;
66607;SDS011;53462;39.616;8.824;2022-08-20T13:27:09;8.98;;;1.70;;
66607;SDS011;53462;39.616;8.824;2022-08-20T13:29:37;9.65;;;1.55;;
66607;SDS011;53462;39.616;8.824;2022-08-20T13:32:03;6.60;;;1.45;;
66607;SDS011;53462;39.616;8.824;2022-08-20T13:34:30;4.93;;;1.40;;
66607;SDS011;53462;39.616;8.824;2022-08-20T13:36:56;6.82;;;1.50;;
66607;SDS011;53462;39.616;8.824;2022-08-20T13:39:22;5.43;;;1.15;;
66607;SDS011;53462;39.616;8.824;2022-08-20T13:41:48;4.90;;;1.75;;
66607;SDS011;53462;39.616;8.824;2022-08-20T13:44:14;6.57;;;1.70;;
66607;SDS011;53462;39.616;8.824;2022-08-20T13:46:43;7.85;;;1.42;;
66607;SDS011;53462;39.616;8.824;2022-08-20T13:49:11;8.35;;;1.83;;
66607;SDS011;53462;39.616;8.824;2022-08-20T13:51:37;9.38;;;1.40;;
66607;SDS011;53462;39.616;8.824;2022-08-20T13:54:03;5.40;;;1.45;;
66607;SDS011;53462;39.616;8.824;2022-08-20T13:56:29;8.57;;;1.63;;
66607;SDS011;53462;39.616;8.824;2022-08-20T13:58:55;8.95;;;1.85;;
66607;SDS011;53462;39.616;8.824;2022-08-20T14:01:21;4.40;;;1.33;;
66607;SDS011;53462;39.616;8.824;2022-08-20T14:03:46;8.18;;;1.58;;
66607;SDS011;53462;39.616;8.824;2022-08-20T14:06:12;7.20;;;1.45;;
66607;SDS011;53462;39.616;8.824;2022-08-20T14:08:38;8.15;;;1.50;;
66607;SDS011;53462;39.616;8.824;2022-08-20T14:11:04;7.78;;;1.58;;
66607;SDS011;53462;39.616;8.824;2022-08-20T14:13:30;7.57;;;1.50;;
66607;SDS011;53462;39.616;8.824;2022-08-20T14:15:56;8.32;;;1.52;;
66607;SDS011;53462;39.616;8.824;2022-08-20T14:18:22;10.25;;;1.73;;
66607;SDS011;53462;39.616;8.824;2022-08-20T14:20:48;10.27;;;1.80;;
66607;SDS011;53462;39.616;8.824;2022-08-20T14:23:14;6.57;;;1.45;;
66607;SDS011;53462;39.616;8.824;2022-08-20T14:25:40;7.32;;;1.55;;
66607;SDS011;53462;39.616;8.824;2022-08-20T14:28:14;6.18;;;1.15;;
66607;SDS011;53462;39.616;8.824;2022-08-20T14:30:47;11.50;;;1.85;;
66607;SDS011;53462;39.616;8.824;2022-08-20T14:33:13;6.25;;;1.30;;
66607;SDS011;53462;39.616;8.824;2022-08-20T14:35:40;7.10;;;1.73;;
66607;SDS011;53462;39.616;8.824;2022-08-20T14:38:06;6.97;;;1.63;;
66607;SDS011;53462;39.616;8.824;2022-08-20T14:40:32;10.98;;;1.60;;
66607;SDS011;53462;39.616;8.824;2022-08-20T14:42:59;6.07;;;1.50;;
66607;SDS011;53462;39.616;8.824;2022-08-20T14:45:25;7.22;;;1.50;;
66607;SDS011;53462;39.616;8.824;2022-08-20T14:47:55;8.95;;;1.77;;
66607;SDS011;53462;39.616;8.824;2022-08-20T14:50:24;7.88;;;1.70;;
66607;SDS011;53462;39.616;8.824;2022-08-20T14:52:55;8.50;;;1.50;;
66607;SDS011;53462;39.616;8.824;2022-08-20T14:55:23;10.05;;;1.58;;
66607;SDS011;53462;39.616;8.824;2022-08-20T14:57:57;6.15;;;1.40;;
66607;SDS011;53462;39.616;8.824;2022-08-20T15:00:24;7.15;;;1.45;;
66607;SDS011;53462;39.616;8.824;2022-08-20T15:02:53;5.95;;;1.58;;
66607;SDS011;53462;39.616;8.824;2022-08-20T15:05:19;8.10;;;1.67;;
66607;SDS011;53462;39.616;8.824;2022-08-20T15:07:46;10.40;;;1.50;;